sensor_id;sensor_type;location;lat;lon;timestamp;temperature;humidity
5938;DHT22;2994;51.220;4.412;2022-12-07T00:01:28;8.89;74.73
5938;DHT22;2994;51.220;4.412;2022-12-07T00:03:56;8.89;74.73
5938;DHT22;2994;51.220;4.412;2022-12-07T00:06:44;8.81;75.04
5938;DHT22;2994;51.220;4.412;2022-12-07T00:09:15;8.81;75.00
5938;DHT22;2994;51.220;4.412;2022-12-07T00:11:41;8.83;74.90
5938;DHT22;2994;51.220;4.412;2022-12-07T00:14:10;8.78;75.19
5938;DHT22;2994;51.220;4.412;2022-12-07T00:16:36;8.80;74.99
5938;DHT22;2994;51.220;4.412;2022-12-07T00:19:02;8.68;75.54
5938;DHT22;2994;51.220;4.412;2022-12-07T00:21:33;8.77;75.27
5938;DHT22;2994;51.220;4.412;2022-12-07T00:23:59;8.76;75.15
5938;DHT22;2994;51.220;4.412;2022-12-07T00:26:30;8.78;75.06
5938;DHT22;2994;51.220;4.412;2022-12-07T00:28:58;8.77;75.05
5938;DHT22;2994;51.220;4.412;2022-12-07T00:31:27;8.74;75.07
5938;DHT22;2994;51.220;4.412;2022-12-07T00:33:53;8.60;75.37
5938;DHT22;2994;51.220;4.412;2022-12-07T00:36:21;8.71;74.88
5938;DHT22;2994;51.220;4.412;2022-12-07T00:38:47;8.72;74.80
5938;DHT22;2994;51.220;4.412;2022-12-07T00:41:20;8.66;75.07
5938;DHT22;2994;51.220;4.412;2022-12-07T00:43:47;8.67;75.05
5938;DHT22;2994;51.220;4.412;2022-12-07T00:46:15;8.70;74.92
5938;DHT22;2994;51.220;4.412;2022-12-07T00:48:41;8.64;75.12
5938;DHT22;2994;51.220;4.412;2022-12-07T00:51:07;8.38;76.20
5938;DHT22;2994;51.220;4.412;2022-12-07T00:53:35;8.29;76.61
5938;DHT22;2994;51.220;4.412;2022-12-07T00:56:15;8.19;77.07
5938;DHT22;2994;51.220;4.412;2022-12-07T00:58:41;8.24;76.66
5938;DHT22;2994;51.220;4.412;2022-12-07T01:01:07;8.38;76.09
5938;DHT22;2994;51.220;4.412;2022-12-07T01:03:34;8.30;76.46
5938;DHT22;2994;51.220;4.412;2022-12-07T01:05:59;8.41;76.11
5938;DHT22;2994;51.220;4.412;2022-12-07T01:08:26;8.45;76.02
5938;DHT22;2994;51.220;4.412;2022-12-07T01:11:04;8.33;76.21
5938;DHT22;2994;51.220;4.412;2022-12-07T01:13:31;8.42;75.89
5938;DHT22;2994;51.220;4.412;2022-12-07T01:15:59;8.42;75.78
5938;DHT22;2994;51.220;4.412;2022-12-07T01:18:29;8.47;75.57
5938;DHT22;2994;51.220;4.412;2022-12-07T01:21:22;8.51;75.55
5938;DHT22;2994;51.220;4.412;2022-12-07T01:23:47;8.55;75.30
5938;DHT22;2994;51.220;4.412;2022-12-07T01:26:16;8.53;75.22
5938;DHT22;2994;51.220;4.412;2022-12-07T01:28:42;8.52;75.35
5938;DHT22;2994;51.220;4.412;2022-12-07T01:31:12;8.51;75.28
5938;DHT22;2994;51.220;4.412;2022-12-07T01:33:40;8.53;75.26
5938;DHT22;2994;51.220;4.412;2022-12-07T01:36:08;8.56;75.24
5938;DHT22;2994;51.220;4.412;2022-12-07T01:38:38;8.51;75.32
5938;DHT22;2994;51.220;4.412;2022-12-07T01:41:04;8.58;75.15
5938;DHT22;2994;51.220;4.412;2022-12-07T01:43:31;8.56;75.22
5938;DHT22;2994;51.220;4.412;2022-12-07T01:45:57;8.56;75.28
5938;DHT22;2994;51.220;4.412;2022-12-07T01:48:29;8.58;75.14
5938;DHT22;2994;51.220;4.412;2022-12-07T01:50:59;8.51;75.31
5938;DHT22;2994;51.220;4.412;2022-12-07T01:53:26;8.48;75.41
5938;DHT22;2994;51.220;4.412;2022-12-07T01:55:55;8.47;75.53
5938;DHT22;2994;51.220;4.412;2022-12-07T01:58:21;8.36;75.92
5938;DHT22;2994;51.220;4.412;2022-12-07T02:00:47;8.39;75.73
5938;DHT22;2994;51.220;4.412;2022-12-07T02:03:14;8.45;75.58
5938;DHT22;2994;51.220;4.412;2022-12-07T02:05:43;8.48;75.50
5938;DHT22;2994;51.220;4.412;2022-12-07T02:08:10;8.51;75.41
5938;DHT22;2994;51.220;4.412;2022-12-07T02:10:36;8.55;75.40
5938;DHT22;2994;51.220;4.412;2022-12-07T02:13:25;8.55;75.47
5938;DHT22;2994;51.220;4.412;2022-12-07T02:25:13;8.30;76.41
5938;DHT22;2994;51.220;4.412;2022-12-07T02:27:52;8.38;76.16
5938;DHT22;2994;51.220;4.412;2022-12-07T02:30:22;8.44;76.00
5938;DHT22;2994;51.220;4.412;2022-12-07T02:33:01;8.50;75.86
5938;DHT22;2994;51.220;4.412;2022-12-07T02:36:17;8.56;75.79
5938;DHT22;2994;51.220;4.412;2022-12-07T02:41:27;8.62;75.47
5938;DHT22;2994;51.220;4.412;2022-12-07T02:43:59;8.62;75.31
5938;DHT22;2994;51.220;4.412;2022-12-07T02:46:29;8.50;75.59
5938;DHT22;2994;51.220;4.412;2022-12-07T02:48:57;8.52;75.26
5938;DHT22;2994;51.220;4.412;2022-12-07T02:51:24;8.59;75.19
5938;DHT22;2994;51.220;4.412;2022-12-07T02:53:51;8.63;75.04
5938;DHT22;2994;51.220;4.412;2022-12-07T02:59:00;8.53;75.28
5938;DHT22;2994;51.220;4.412;2022-12-07T03:01:46;8.55;75.12
5938;DHT22;2994;51.220;4.412;2022-12-07T03:09:49;8.50;75.22
5938;DHT22;2994;51.220;4.412;2022-12-07T03:12:24;8.57;75.05
5938;DHT22;2994;51.220;4.412;2022-12-07T03:17:44;8.60;75.12
5938;DHT22;2994;51.220;4.412;2022-12-07T03:20:12;8.60;75.13
5938;DHT22;2994;51.220;4.412;2022-12-07T03:22:39;8.58;75.13
5938;DHT22;2994;51.220;4.412;2022-12-07T03:25:10;8.59;75.06
5938;DHT22;2994;51.220;4.412;2022-12-07T03:28:04;8.51;75.15
5938;DHT22;2994;51.220;4.412;2022-12-07T03:33:11;8.47;75.05
5938;DHT22;2994;51.220;4.412;2022-12-07T03:35:47;8.50;74.97
5938;DHT22;2994;51.220;4.412;2022-12-07T03:38:20;8.48;74.84
5938;DHT22;2994;51.220;4.412;2022-12-07T03:43:29;8.37;75.26
5938;DHT22;2994;51.220;4.412;2022-12-07T03:49:18;8.38;75.42
5938;DHT22;2994;51.220;4.412;2022-12-07T03:54:44;8.42;75.16
5938;DHT22;2994;51.220;4.412;2022-12-07T03:57:11;8.45;75.12
5938;DHT22;2994;51.220;4.412;2022-12-07T03:59:38;8.48;74.98
5938;DHT22;2994;51.220;4.412;2022-12-07T04:02:05;8.50;74.94
5938;DHT22;2994;51.220;4.412;2022-12-07T04:04:32;8.50;74.92
5938;DHT22;2994;51.220;4.412;2022-12-07T04:06:58;8.35;75.23
5938;DHT22;2994;51.220;4.412;2022-12-07T04:09:23;8.41;75.02
5938;DHT22;2994;51.220;4.412;2022-12-07T04:11:49;8.48;74.72
5938;DHT22;2994;51.220;4.412;2022-12-07T04:14:14;8.47;74.75
5938;DHT22;2994;51.220;4.412;2022-12-07T04:16:53;8.50;74.55
5938;DHT22;2994;51.220;4.412;2022-12-07T04:19:23;8.42;74.68
5938;DHT22;2994;51.220;4.412;2022-12-07T04:21:49;8.46;74.60
5938;DHT22;2994;51.220;4.412;2022-12-07T04:24:15;8.48;74.58
5938;DHT22;2994;51.220;4.412;2022-12-07T04:26:41;8.49;74.52
5938;DHT22;2994;51.220;4.412;2022-12-07T04:29:07;8.51;74.47
5938;DHT22;2994;51.220;4.412;2022-12-07T04:31:33;8.49;74.47
5938;DHT22;2994;51.220;4.412;2022-12-07T04:33:59;8.36;75.02
5938;DHT22;2994;51.220;4.412;2022-12-07T04:36:24;8.50;74.56
5938;DHT22;2994;51.220;4.412;2022-12-07T04:38:50;8.52;74.56
5938;DHT22;2994;51.220;4.412;2022-12-07T04:41:17;8.48;74.62
5938;DHT22;2994;51.220;4.412;2022-12-07T04:43:43;8.50;74.60
5938;DHT22;2994;51.220;4.412;2022-12-07T04:46:08;8.44;74.96
5938;DHT22;2994;51.220;4.412;2022-12-07T04:48:34;8.50;74.57
5938;DHT22;2994;51.220;4.412;2022-12-07T04:50:59;8.53;74.54
5938;DHT22;2994;51.220;4.412;2022-12-07T04:53:24;8.56;74.47
5938;DHT22;2994;51.220;4.412;2022-12-07T04:55:50;8.58;74.66
5938;DHT22;2994;51.220;4.412;2022-12-07T04:58:15;8.62;74.65
5938;DHT22;2994;51.220;4.412;2022-12-07T05:00:41;8.67;74.41
5938;DHT22;2994;51.220;4.412;2022-12-07T05:03:06;8.68;74.46
5938;DHT22;2994;51.220;4.412;2022-12-07T05:05:32;8.72;74.22
5938;DHT22;2994;51.220;4.412;2022-12-07T05:07:57;8.72;74.28
5938;DHT22;2994;51.220;4.412;2022-12-07T05:10:23;8.64;74.44
5938;DHT22;2994;51.220;4.412;2022-12-07T05:12:48;8.71;74.46
5938;DHT22;2994;51.220;4.412;2022-12-07T05:15:15;8.71;74.37
5938;DHT22;2994;51.220;4.412;2022-12-07T05:17:41;8.75;74.31
5938;DHT22;2994;51.220;4.412;2022-12-07T05:20:07;8.77;74.42
5938;DHT22;2994;51.220;4.412;2022-12-07T05:22:33;8.78;74.38
5938;DHT22;2994;51.220;4.412;2022-12-07T05:24:58;8.80;74.33
5938;DHT22;2994;51.220;4.412;2022-12-07T05:27:24;8.83;74.29
5938;DHT22;2994;51.220;4.412;2022-12-07T05:29:50;8.83;74.18
5938;DHT22;2994;51.220;4.412;2022-12-07T05:32:16;8.85;74.13
5938;DHT22;2994;51.220;4.412;2022-12-07T05:34:41;8.82;74.18
5938;DHT22;2994;51.220;4.412;2022-12-07T05:37:07;8.86;74.08
5938;DHT22;2994;51.220;4.412;2022-12-07T05:39:32;8.86;74.12
5938;DHT22;2994;51.220;4.412;2022-12-07T05:41:58;8.89;74.08
5938;DHT22;2994;51.220;4.412;2022-12-07T05:44:44;8.92;74.00
5938;DHT22;2994;51.220;4.412;2022-12-07T05:47:11;8.92;73.92
5938;DHT22;2994;51.220;4.412;2022-12-07T05:49:37;8.91;73.99
5938;DHT22;2994;51.220;4.412;2022-12-07T05:52:03;8.93;73.65
5938;DHT22;2994;51.220;4.412;2022-12-07T05:54:28;8.95;73.61
5938;DHT22;2994;51.220;4.412;2022-12-07T05:56:54;8.93;73.45
5938;DHT22;2994;51.220;4.412;2022-12-07T05:59:19;8.94;73.44
5938;DHT22;2994;51.220;4.412;2022-12-07T06:04:16;8.93;72.70
5938;DHT22;2994;51.220;4.412;2022-12-07T06:06:42;8.89;72.51
5938;DHT22;2994;51.220;4.412;2022-12-07T06:09:07;8.83;72.61
5938;DHT22;2994;51.220;4.412;2022-12-07T06:11:33;8.83;72.90
5938;DHT22;2994;51.220;4.412;2022-12-07T06:14:17;8.71;73.06
5938;DHT22;2994;51.220;4.412;2022-12-07T06:16:42;8.46;73.80
5938;DHT22;2994;51.220;4.412;2022-12-07T06:19:08;8.62;73.35
5938;DHT22;2994;51.220;4.412;2022-12-07T06:21:33;8.70;73.46
5938;DHT22;2994;51.220;4.412;2022-12-07T06:23:59;8.74;73.26
5938;DHT22;2994;51.220;4.412;2022-12-07T06:26:24;8.77;73.44
5938;DHT22;2994;51.220;4.412;2022-12-07T06:28:50;8.80;73.20
5938;DHT22;2994;51.220;4.412;2022-12-07T06:31:15;8.85;73.03
5938;DHT22;2994;51.220;4.412;2022-12-07T06:33:41;8.85;73.12
5938;DHT22;2994;51.220;4.412;2022-12-07T06:36:08;8.90;73.04
5938;DHT22;2994;51.220;4.412;2022-12-07T06:38:33;8.91;73.15
5938;DHT22;2994;51.220;4.412;2022-12-07T06:40:59;8.91;73.18
5938;DHT22;2994;51.220;4.412;2022-12-07T06:43:24;8.93;73.19
5938;DHT22;2994;51.220;4.412;2022-12-07T06:45:50;8.92;73.41
5938;DHT22;2994;51.220;4.412;2022-12-07T06:48:16;8.95;73.32
5938;DHT22;2994;51.220;4.412;2022-12-07T06:50:44;8.96;73.08
5938;DHT22;2994;51.220;4.412;2022-12-07T06:53:10;8.96;73.11
5938;DHT22;2994;51.220;4.412;2022-12-07T06:55:35;8.95;73.11
5938;DHT22;2994;51.220;4.412;2022-12-07T06:58:00;8.93;73.20
5938;DHT22;2994;51.220;4.412;2022-12-07T07:00:27;8.93;73.15
5938;DHT22;2994;51.220;4.412;2022-12-07T07:02:53;8.93;73.09
5938;DHT22;2994;51.220;4.412;2022-12-07T07:05:18;8.92;73.06
5938;DHT22;2994;51.220;4.412;2022-12-07T07:07:46;8.91;73.06
5938;DHT22;2994;51.220;4.412;2022-12-07T07:10:13;8.79;73.38
5938;DHT22;2994;51.220;4.412;2022-12-07T07:12:38;8.81;73.19
5938;DHT22;2994;51.220;4.412;2022-12-07T07:15:04;8.73;73.22
5938;DHT22;2994;51.220;4.412;2022-12-07T07:17:30;8.78;73.18
5938;DHT22;2994;51.220;4.412;2022-12-07T07:19:55;8.77;73.15
5938;DHT22;2994;51.220;4.412;2022-12-07T07:22:20;8.76;72.96
5938;DHT22;2994;51.220;4.412;2022-12-07T07:24:46;8.65;73.44
5938;DHT22;2994;51.220;4.412;2022-12-07T07:27:11;8.73;73.19
5938;DHT22;2994;51.220;4.412;2022-12-07T07:29:37;8.71;73.19
5938;DHT22;2994;51.220;4.412;2022-12-07T07:32:02;8.70;73.18
5938;DHT22;2994;51.220;4.412;2022-12-07T07:34:28;8.63;73.39
5938;DHT22;2994;51.220;4.412;2022-12-07T07:36:53;8.66;73.35
5938;DHT22;2994;51.220;4.412;2022-12-07T07:39:18;8.70;73.15
5938;DHT22;2994;51.220;4.412;2022-12-07T07:41:44;8.71;73.07
5938;DHT22;2994;51.220;4.412;2022-12-07T07:44:09;8.70;73.12
5938;DHT22;2994;51.220;4.412;2022-12-07T07:46:35;8.71;73.07
5938;DHT22;2994;51.220;4.412;2022-12-07T07:49:01;8.68;73.06
5938;DHT22;2994;51.220;4.412;2022-12-07T07:51:26;8.70;73.06
5938;DHT22;2994;51.220;4.412;2022-12-07T07:53:52;8.72;73.00
5938;DHT22;2994;51.220;4.412;2022-12-07T07:56:17;8.72;73.01
5938;DHT22;2994;51.220;4.412;2022-12-07T07:58:42;8.64;73.32
5938;DHT22;2994;51.220;4.412;2022-12-07T08:01:08;8.67;72.90
5938;DHT22;2994;51.220;4.412;2022-12-07T08:03:35;8.68;73.06
5938;DHT22;2994;51.220;4.412;2022-12-07T08:06:02;8.67;73.24
5938;DHT22;2994;51.220;4.412;2022-12-07T08:08:28;8.73;72.92
5938;DHT22;2994;51.220;4.412;2022-12-07T08:10:53;8.66;72.80
5938;DHT22;2994;51.220;4.412;2022-12-07T08:13:19;8.72;72.83
5938;DHT22;2994;51.220;4.412;2022-12-07T08:15:46;8.61;73.31
5938;DHT22;2994;51.220;4.412;2022-12-07T08:18:13;8.60;73.40
5938;DHT22;2994;51.220;4.412;2022-12-07T08:20:40;8.59;73.33
5938;DHT22;2994;51.220;4.412;2022-12-07T08:23:06;8.65;73.15
5938;DHT22;2994;51.220;4.412;2022-12-07T08:25:32;8.48;73.67
5938;DHT22;2994;51.220;4.412;2022-12-07T08:27:58;8.50;73.44
5938;DHT22;2994;51.220;4.412;2022-12-07T08:30:24;8.56;73.41
5938;DHT22;2994;51.220;4.412;2022-12-07T08:32:50;8.61;73.42
5938;DHT22;2994;51.220;4.412;2022-12-07T08:35:16;8.36;73.97
5938;DHT22;2994;51.220;4.412;2022-12-07T08:37:41;8.52;73.61
5938;DHT22;2994;51.220;4.412;2022-12-07T08:40:08;8.60;73.54
5938;DHT22;2994;51.220;4.412;2022-12-07T08:42:34;8.58;73.77
5938;DHT22;2994;51.220;4.412;2022-12-07T08:45:06;8.68;73.65
5938;DHT22;2994;51.220;4.412;2022-12-07T08:47:34;8.77;73.40
5938;DHT22;2994;51.220;4.412;2022-12-07T08:50:00;8.79;73.49
5938;DHT22;2994;51.220;4.412;2022-12-07T08:52:30;8.83;73.38
5938;DHT22;2994;51.220;4.412;2022-12-07T08:54:56;8.88;73.35
5938;DHT22;2994;51.220;4.412;2022-12-07T08:57:21;8.95;73.25
5938;DHT22;2994;51.220;4.412;2022-12-07T08:59:47;9.01;73.21
5938;DHT22;2994;51.220;4.412;2022-12-07T09:02:13;8.97;73.44
5938;DHT22;2994;51.220;4.412;2022-12-07T09:04:38;8.96;73.63
5938;DHT22;2994;51.220;4.412;2022-12-07T09:07:04;9.05;73.56
5938;DHT22;2994;51.220;4.412;2022-12-07T09:09:29;9.11;73.44
5938;DHT22;2994;51.220;4.412;2022-12-07T09:11:55;9.16;73.32
5938;DHT22;2994;51.220;4.412;2022-12-07T09:14:20;9.15;73.38
5938;DHT22;2994;51.220;4.412;2022-12-07T09:16:46;9.18;73.31
5938;DHT22;2994;51.220;4.412;2022-12-07T09:19:11;9.19;73.27
5938;DHT22;2994;51.220;4.412;2022-12-07T09:21:37;9.20;73.15
5938;DHT22;2994;51.220;4.412;2022-12-07T09:24:02;9.20;73.20
5938;DHT22;2994;51.220;4.412;2022-12-07T09:26:28;9.26;73.06
5938;DHT22;2994;51.220;4.412;2022-12-07T09:28:53;9.37;72.85
5938;DHT22;2994;51.220;4.412;2022-12-07T09:31:19;9.35;72.96
5938;DHT22;2994;51.220;4.412;2022-12-07T09:33:44;9.30;73.16
5938;DHT22;2994;51.220;4.412;2022-12-07T09:36:10;9.23;73.65
5938;DHT22;2994;51.220;4.412;2022-12-07T09:38:35;9.21;74.08
5938;DHT22;2994;51.220;4.412;2022-12-07T09:41:07;9.29;73.90
5938;DHT22;2994;51.220;4.412;2022-12-07T09:43:34;9.31;73.78
5938;DHT22;2994;51.220;4.412;2022-12-07T09:46:00;9.27;73.91
5938;DHT22;2994;51.220;4.412;2022-12-07T09:48:36;9.26;73.79
5938;DHT22;2994;51.220;4.412;2022-12-07T09:51:17;9.34;73.74
5938;DHT22;2994;51.220;4.412;2022-12-07T09:53:43;9.35;73.72
5938;DHT22;2994;51.220;4.412;2022-12-07T09:56:14;9.36;73.75
5938;DHT22;2994;51.220;4.412;2022-12-07T09:58:41;9.39;73.48
5938;DHT22;2994;51.220;4.412;2022-12-07T10:03:34;9.48;73.19
5938;DHT22;2994;51.220;4.412;2022-12-07T10:06:00;9.53;73.06
5938;DHT22;2994;51.220;4.412;2022-12-07T10:08:26;9.61;72.67
5938;DHT22;2994;51.220;4.412;2022-12-07T10:10:53;9.51;73.03
5938;DHT22;2994;51.220;4.412;2022-12-07T10:13:35;9.64;72.69
5938;DHT22;2994;51.220;4.412;2022-12-07T10:16:01;9.69;72.68
5938;DHT22;2994;51.220;4.412;2022-12-07T10:23:33;9.68;72.88
5938;DHT22;2994;51.220;4.412;2022-12-07T10:25:59;9.76;72.61
5938;DHT22;2994;51.220;4.412;2022-12-07T10:28:34;9.78;72.68
5938;DHT22;2994;51.220;4.412;2022-12-07T10:31:17;9.77;72.71
5938;DHT22;2994;51.220;4.412;2022-12-07T10:36:18;9.72;72.67
5938;DHT22;2994;51.220;4.412;2022-12-07T10:39:03;9.76;72.83
5938;DHT22;2994;51.220;4.412;2022-12-07T10:41:29;9.80;72.76
5938;DHT22;2994;51.220;4.412;2022-12-07T11:00:51;9.86;72.52
5938;DHT22;2994;51.220;4.412;2022-12-07T11:03:30;9.94;72.67
5938;DHT22;2994;51.220;4.412;2022-12-07T11:06:14;9.88;72.80
5938;DHT22;2994;51.220;4.412;2022-12-07T11:11:35;9.96;72.67
5938;DHT22;2994;51.220;4.412;2022-12-07T11:16:44;10.03;72.69
5938;DHT22;2994;51.220;4.412;2022-12-07T11:19:46;9.97;72.22
5938;DHT22;2994;51.220;4.412;2022-12-07T11:30:34;10.05;72.22
5938;DHT22;2994;51.220;4.412;2022-12-07T11:33:22;10.09;72.20
5938;DHT22;2994;51.220;4.412;2022-12-07T11:41:08;10.00;71.61
5938;DHT22;2994;51.220;4.412;2022-12-07T11:44:08;9.80;71.92
5938;DHT22;2994;51.220;4.412;2022-12-07T11:46:43;9.80;71.80
5938;DHT22;2994;51.220;4.412;2022-12-07T11:52:58;9.63;71.71
5938;DHT22;2994;51.220;4.412;2022-12-07T12:06:40;9.88;71.39
5938;DHT22;2994;51.220;4.412;2022-12-07T12:09:15;9.88;71.26
5938;DHT22;2994;51.220;4.412;2022-12-07T12:17:09;9.75;71.41
5938;DHT22;2994;51.220;4.412;2022-12-07T12:23:05;9.82;71.95
5938;DHT22;2994;51.220;4.412;2022-12-07T12:25:47;9.90;72.12
5938;DHT22;2994;51.220;4.412;2022-12-07T12:28:25;9.85;72.48
5938;DHT22;2994;51.220;4.412;2022-12-07T12:54:19;9.55;71.24
5938;DHT22;2994;51.220;4.412;2022-12-07T13:01:54;9.66;71.67
5938;DHT22;2994;51.220;4.412;2022-12-07T13:04:37;9.67;71.10
5938;DHT22;2994;51.220;4.412;2022-12-07T13:07:04;9.77;71.58
5938;DHT22;2994;51.220;4.412;2022-12-07T13:09:32;9.77;71.45
5938;DHT22;2994;51.220;4.412;2022-12-07T13:12:04;9.84;71.19
5938;DHT22;2994;51.220;4.412;2022-12-07T13:14:42;9.89;71.62
5938;DHT22;2994;51.220;4.412;2022-12-07T13:17:54;9.61;72.20
5938;DHT22;2994;51.220;4.412;2022-12-07T13:20:03;9.85;71.85
5938;DHT22;2994;51.220;4.412;2022-12-07T13:24:58;9.45;72.49
5938;DHT22;2994;51.220;4.412;2022-12-07T13:27:25;9.42;72.91
5938;DHT22;2994;51.220;4.412;2022-12-07T13:29:52;9.65;72.49
5938;DHT22;2994;51.220;4.412;2022-12-07T13:32:28;9.79;72.50
5938;DHT22;2994;51.220;4.412;2022-12-07T13:34:54;9.82;72.09
5938;DHT22;2994;51.220;4.412;2022-12-07T13:37:27;9.74;72.44
5938;DHT22;2994;51.220;4.412;2022-12-07T13:39:55;9.67;72.96
5938;DHT22;2994;51.220;4.412;2022-12-07T13:42:34;9.69;72.87
5938;DHT22;2994;51.220;4.412;2022-12-07T13:45:16;9.75;72.56
5938;DHT22;2994;51.220;4.412;2022-12-07T13:47:52;9.76;72.50
5938;DHT22;2994;51.220;4.412;2022-12-07T13:50:28;9.45;72.51
5938;DHT22;2994;51.220;4.412;2022-12-07T13:52:56;9.64;71.74
5938;DHT22;2994;51.220;4.412;2022-12-07T13:55:22;9.60;71.68
5938;DHT22;2994;51.220;4.412;2022-12-07T13:57:50;9.72;71.83
5938;DHT22;2994;51.220;4.412;2022-12-07T14:00:20;9.70;71.75
5938;DHT22;2994;51.220;4.412;2022-12-07T14:05:43;9.80;71.45
5938;DHT22;2994;51.220;4.412;2022-12-07T14:08:22;9.72;71.48
5938;DHT22;2994;51.220;4.412;2022-12-07T14:13:32;9.80;70.99
5938;DHT22;2994;51.220;4.412;2022-12-07T14:15:59;9.74;71.13
5938;DHT22;2994;51.220;4.412;2022-12-07T14:18:43;9.62;71.26
5938;DHT22;2994;51.220;4.412;2022-12-07T14:23:34;9.34;71.41
5938;DHT22;2994;51.220;4.412;2022-12-07T14:26:15;9.44;71.57
5938;DHT22;2994;51.220;4.412;2022-12-07T14:28:42;9.40;71.27
5938;DHT22;2994;51.220;4.412;2022-12-07T14:31:18;9.25;72.01
5938;DHT22;2994;51.220;4.412;2022-12-07T14:33:46;9.07;72.83
5938;DHT22;2994;51.220;4.412;2022-12-07T14:36:13;9.18;72.38
5938;DHT22;2994;51.220;4.412;2022-12-07T14:38:39;9.12;72.56
5938;DHT22;2994;51.220;4.412;2022-12-07T14:41:12;8.94;73.29
5938;DHT22;2994;51.220;4.412;2022-12-07T14:43:58;9.04;73.30
5938;DHT22;2994;51.220;4.412;2022-12-07T14:46:23;9.08;72.83
5938;DHT22;2994;51.220;4.412;2022-12-07T14:48:49;9.06;72.96
5938;DHT22;2994;51.220;4.412;2022-12-07T14:51:15;8.95;72.72
5938;DHT22;2994;51.220;4.412;2022-12-07T14:53:46;8.92;72.96
5938;DHT22;2994;51.220;4.412;2022-12-07T14:56:12;9.09;72.71
5938;DHT22;2994;51.220;4.412;2022-12-07T14:58:38;8.80;73.44
5938;DHT22;2994;51.220;4.412;2022-12-07T15:01:04;8.92;73.22
5938;DHT22;2994;51.220;4.412;2022-12-07T15:03:30;9.04;72.81
5938;DHT22;2994;51.220;4.412;2022-12-07T15:05:55;9.00;72.88
5938;DHT22;2994;51.220;4.412;2022-12-07T15:08:20;9.11;72.70
5938;DHT22;2994;51.220;4.412;2022-12-07T15:10:46;9.14;72.64
5938;DHT22;2994;51.220;4.412;2022-12-07T15:13:11;8.97;73.02
5938;DHT22;2994;51.220;4.412;2022-12-07T15:15:56;8.96;72.74
5938;DHT22;2994;51.220;4.412;2022-12-07T15:18:22;8.86;72.67
5938;DHT22;2994;51.220;4.412;2022-12-07T15:20:49;9.03;72.34
5938;DHT22;2994;51.220;4.412;2022-12-07T15:23:14;8.73;73.23
5938;DHT22;2994;51.220;4.412;2022-12-07T15:25:41;8.62;74.02
5938;DHT22;2994;51.220;4.412;2022-12-07T15:28:07;8.62;74.15
5938;DHT22;2994;51.220;4.412;2022-12-07T15:30:32;8.73;73.92
5938;DHT22;2994;51.220;4.412;2022-12-07T15:32:58;8.78;73.80
5938;DHT22;2994;51.220;4.412;2022-12-07T15:35:23;8.87;73.56
5938;DHT22;2994;51.220;4.412;2022-12-07T15:37:49;8.52;75.20
5938;DHT22;2994;51.220;4.412;2022-12-07T15:40:14;8.73;74.38
5938;DHT22;2994;51.220;4.412;2022-12-07T15:45:15;8.91;74.07
5938;DHT22;2994;51.220;4.412;2022-12-07T15:47:44;8.82;74.34
5938;DHT22;2994;51.220;4.412;2022-12-07T15:50:21;8.71;74.76
5938;DHT22;2994;51.220;4.412;2022-12-07T15:52:47;8.85;73.95
5938;DHT22;2994;51.220;4.412;2022-12-07T15:55:13;8.57;74.89
5938;DHT22;2994;51.220;4.412;2022-12-07T15:57:39;8.73;74.21
5938;DHT22;2994;51.220;4.412;2022-12-07T16:00:06;8.71;74.44
5938;DHT22;2994;51.220;4.412;2022-12-07T16:02:33;8.81;74.14
5938;DHT22;2994;51.220;4.412;2022-12-07T16:04:59;8.85;73.96
5938;DHT22;2994;51.220;4.412;2022-12-07T16:07:24;8.71;74.18
5938;DHT22;2994;51.220;4.412;2022-12-07T16:09:50;8.79;73.77
5938;DHT22;2994;51.220;4.412;2022-12-07T16:12:15;8.86;73.54
5938;DHT22;2994;51.220;4.412;2022-12-07T16:14:41;8.83;73.24
5938;DHT22;2994;51.220;4.412;2022-12-07T16:17:07;8.89;73.00
5938;DHT22;2994;51.220;4.412;2022-12-07T16:19:37;8.87;73.09
5938;DHT22;2994;51.220;4.412;2022-12-07T16:22:03;8.79;73.36
5938;DHT22;2994;51.220;4.412;2022-12-07T16:24:30;8.91;73.03
5938;DHT22;2994;51.220;4.412;2022-12-07T16:26:55;8.65;73.70
5938;DHT22;2994;51.220;4.412;2022-12-07T16:29:22;8.60;73.35
5938;DHT22;2994;51.220;4.412;2022-12-07T16:31:48;8.65;73.24
5938;DHT22;2994;51.220;4.412;2022-12-07T16:34:14;8.61;73.25
5938;DHT22;2994;51.220;4.412;2022-12-07T16:36:39;8.71;73.03
5938;DHT22;2994;51.220;4.412;2022-12-07T16:39:05;8.52;73.42
5938;DHT22;2994;51.220;4.412;2022-12-07T16:41:31;8.61;73.09
5938;DHT22;2994;51.220;4.412;2022-12-07T16:43:57;8.75;72.77
5938;DHT22;2994;51.220;4.412;2022-12-07T16:46:22;8.72;72.60
5938;DHT22;2994;51.220;4.412;2022-12-07T16:48:48;8.60;72.84
5938;DHT22;2994;51.220;4.412;2022-12-07T16:51:14;8.73;72.22
5938;DHT22;2994;51.220;4.412;2022-12-07T16:53:41;8.82;71.96
5938;DHT22;2994;51.220;4.412;2022-12-07T16:56:14;8.87;71.68
5938;DHT22;2994;51.220;4.412;2022-12-07T16:58:41;8.67;71.96
5938;DHT22;2994;51.220;4.412;2022-12-07T17:01:11;8.64;72.39
5938;DHT22;2994;51.220;4.412;2022-12-07T17:03:37;8.64;72.67
5938;DHT22;2994;51.220;4.412;2022-12-07T17:06:02;8.79;72.21
5938;DHT22;2994;51.220;4.412;2022-12-07T17:08:31;8.86;71.87
5938;DHT22;2994;51.220;4.412;2022-12-07T17:10:56;8.93;71.51
5938;DHT22;2994;51.220;4.412;2022-12-07T17:13:24;8.83;72.06
5938;DHT22;2994;51.220;4.412;2022-12-07T17:16:08;8.83;72.08
5938;DHT22;2994;51.220;4.412;2022-12-07T17:18:35;8.85;72.15
5938;DHT22;2994;51.220;4.412;2022-12-07T17:21:05;8.89;72.22
5938;DHT22;2994;51.220;4.412;2022-12-07T17:23:32;8.90;72.39
5938;DHT22;2994;51.220;4.412;2022-12-07T17:26:09;8.88;72.55
5938;DHT22;2994;51.220;4.412;2022-12-07T17:28:36;8.94;72.19
5938;DHT22;2994;51.220;4.412;2022-12-07T17:31:05;8.93;72.17
5938;DHT22;2994;51.220;4.412;2022-12-07T17:33:31;8.74;72.09
5938;DHT22;2994;51.220;4.412;2022-12-07T17:35:57;8.86;71.88
5938;DHT22;2994;51.220;4.412;2022-12-07T17:38:22;8.88;71.95
5938;DHT22;2994;51.220;4.412;2022-12-07T17:40:47;8.92;71.65
5938;DHT22;2994;51.220;4.412;2022-12-07T17:43:13;8.93;71.55
5938;DHT22;2994;51.220;4.412;2022-12-07T17:45:38;8.91;71.71
5938;DHT22;2994;51.220;4.412;2022-12-07T17:48:04;8.89;71.49
5938;DHT22;2994;51.220;4.412;2022-12-07T17:50:29;8.79;72.00
5938;DHT22;2994;51.220;4.412;2022-12-07T17:53:14;8.88;72.06
5938;DHT22;2994;51.220;4.412;2022-12-07T17:55:39;8.91;72.16
5938;DHT22;2994;51.220;4.412;2022-12-07T17:58:05;8.95;72.25
5938;DHT22;2994;51.220;4.412;2022-12-07T18:00:31;8.98;71.80
5938;DHT22;2994;51.220;4.412;2022-12-07T18:03:03;8.79;72.16
5938;DHT22;2994;51.220;4.412;2022-12-07T18:05:28;8.85;71.84
5938;DHT22;2994;51.220;4.412;2022-12-07T18:07:54;8.79;71.93
5938;DHT22;2994;51.220;4.412;2022-12-07T18:10:19;8.80;72.06
5938;DHT22;2994;51.220;4.412;2022-12-07T18:12:45;8.81;72.04
5938;DHT22;2994;51.220;4.412;2022-12-07T18:15:10;8.78;71.68
5938;DHT22;2994;51.220;4.412;2022-12-07T18:17:35;8.73;71.80
5938;DHT22;2994;51.220;4.412;2022-12-07T18:20:01;8.74;71.69
5938;DHT22;2994;51.220;4.412;2022-12-07T18:22:26;8.80;71.93
5938;DHT22;2994;51.220;4.412;2022-12-07T18:24:52;8.81;72.10
5938;DHT22;2994;51.220;4.412;2022-12-07T18:27:17;8.86;72.30
5938;DHT22;2994;51.220;4.412;2022-12-07T18:29:43;8.88;72.00
5938;DHT22;2994;51.220;4.412;2022-12-07T18:32:08;8.93;72.03
5938;DHT22;2994;51.220;4.412;2022-12-07T18:34:34;8.90;72.29
5938;DHT22;2994;51.220;4.412;2022-12-07T18:36:59;8.87;72.47
5938;DHT22;2994;51.220;4.412;2022-12-07T18:39:25;8.96;72.18
5938;DHT22;2994;51.220;4.412;2022-12-07T18:41:50;8.78;72.87
5938;DHT22;2994;51.220;4.412;2022-12-07T18:44:16;8.96;72.29
5938;DHT22;2994;51.220;4.412;2022-12-07T18:46:42;8.97;72.24
5938;DHT22;2994;51.220;4.412;2022-12-07T18:49:10;9.01;72.05
5938;DHT22;2994;51.220;4.412;2022-12-07T18:51:36;9.03;71.89
5938;DHT22;2994;51.220;4.412;2022-12-07T18:54:02;9.03;71.86